Port Republic, Virginia
Current Conditions -  °F | °C
As of 7:15 PM on Wednesday 22 Oct 2014 (Local Time) from KSHD Reporting Station
Scattered Clouds Scattered Clouds  
Wind Chill: 53°   Ceiling: Unl
Heat Index: 53°   Visibility: 10mi
Dew Point: 40°   Wind: 10mph
Humidity: 63%   Direction: 330°NNW
Pressure: 30.05"   Gusts: NA
Location:  38.3°N, 78.81°W
Report Text: KSHD 222315Z AUTO 33009KT 10SM SCT070 12/05 A3005 RMK AO2 T01150047
Loading
Personal Weather Stations






























Interactive Weather Map
Tropical Storm Tracking
New forecast layout! Learn more

10-Day Weather Forecast

Advertisements
Track Severe Weather on mobile